Weather at Miami International Airport

Public forecast

Using degrees Fahrenheit for public forecast. Weather courtesy of forecast.io.

Current aviation weather report (METAR) for Miami International Airport

2024/02/25 04:53 (retrieved 49 minutes ago)

KMIA 250453Z 30007KT 10SM CLR 16/06 A3013 RMK AO2 SLP202 T01560056 402440156

Closest aviation forecast (TAF) to Miami International Airport

Forecast is more than 12 hours old.

Closest forecast is Patrick Space Force Base, 147.6 nm (273.3 km) N.

2024/02/23 19:03 (retrieved 1 day ago)

TAF TAF KCOF 231900Z 2319/2501 22025G35KT 9999 FEW050 QNH2972INS BECMG 2400/2401 29025G35KT 6000 RA SCT020 BKN040 QNH2973INS BECMG 2405/2406 33025G35KT 9999 NSW SCT030 SCT050 QNH2980INS BECMG 2409/2410 34015G20KT 9999 FEW040 QNH2983INS TX26/2320Z TN13/2411Z